Time;durP1;ratioP1;P1;durP2;ratioP2;P2;SDS_P1;SDS_P2;PMS_P1;PMS_P2;Temp;Humidity;BMP_temperature;BMP_pressure;BME280_temperature;BME280_humidity;BME280_pressure;Samples;Min_cycle;Max_cycle;Signal;HPM_P1;HPM_P2
2022/10/24 00:00:44;;;;;;;;;18.60;17.60;;;;;23.02;47.02;99789.13;4961859;28;8862;-81
2022/10/24 00:03:33;;;;;;;;;15.40;15.40;;;;;22.89;47.26;99791.53;4968815;28;8868;-83
2022/10/24 00:06:06;;;;;;;;;18.80;17.60;;;;;22.96;47.17;99793.81;4974820;28;8897;-77
2022/10/24 00:08:37;;;;;;;;;19.00;16.40;;;;;22.98;47.26;99789.28;4942286;28;9000;-79
2022/10/24 00:11:12;;;;;;;;;18.00;15.40;;;;;23.06;47.33;99782.75;4947147;28;8897;-79
2022/10/24 00:13:44;;;;;;;;;16.60;15.60;;;;;23.01;47.20;99782.13;4974332;28;8891;-80
2022/10/24 00:16:13;;;;;;;;;14.40;13.20;;;;;23.04;47.23;99784.63;4955395;28;8877;-81
2022/10/24 00:18:43;;;;;;;;;17.20;17.20;;;;;22.97;47.21;99782.25;4978850;28;8859;-82
2022/10/24 00:21:12;;;;;;;;;13.40;13.40;;;;;22.76;47.58;99772.66;4998963;28;8968;-79
2022/10/24 00:23:42;;;;;;;;;15.40;15.20;;;;;22.63;47.96;99768.81;5037952;28;9471;-81
2022/10/24 00:26:15;;;;;;;;;16.40;15.60;;;;;22.63;47.95;99772.34;5010591;28;8877;-80
2022/10/24 00:28:45;;;;;;;;;15.20;12.40;;;;;22.54;48.09;99770.13;4958416;28;8862;-80
2022/10/24 00:31:21;;;;;;;;;18.20;17.40;;;;;22.54;48.10;99767.47;4964690;28;8860;-80
2022/10/24 00:33:55;;;;;;;;;17.20;14.60;;;;;22.41;48.36;99767.16;4975822;28;8898;-79
2022/10/24 00:36:30;;;;;;;;;15.80;15.60;;;;;22.53;48.15;99763.94;4976666;28;8875;-83
2022/10/24 00:39:07;;;;;;;;;18.80;18.60;;;;;22.53;48.08;99760.41;4976505;28;8872;-80
2022/10/24 00:41:43;;;;;;;;;18.40;15.80;;;;;22.56;47.99;99757.63;4955272;28;8878;-79
2022/10/24 00:44:27;;;;;;;;;15.80;15.80;;;;;22.45;48.15;99762.56;4977239;28;8864;-81
2022/10/24 00:47:08;;;;;;;;;14.80;13.80;;;;;22.42;48.15;99752.97;4945445;28;8989;-79
2022/10/24 00:49:54;;;;;;;;;15.60;15.20;;;;;22.51;47.87;99749.88;4965167;28;9468;-81
2022/10/24 00:52:50;;;;;;;;;15.00;15.00;;;;;22.49;47.97;99748.19;4832913;29;8936;-80
2022/10/24 00:55:22;;;;;;;;;12.80;12.60;;;;;22.68;47.53;99740.22;4902566;28;9627;-80
2022/10/24 00:58:00;;;;;;;;;18.20;17.20;;;;;22.77;47.28;99747.75;4917450;29;8939;-79
2022/10/24 01:00:32;;;;;;;;;14.20;12.60;;;;;22.83;46.79;99749.28;4870704;29;9048;-81
2022/10/24 01:03:03;;;;;;;;;16.60;15.20;;;;;22.98;47.18;99748.53;4872268;28;8978;-80
2022/10/24 01:05:49;;;;;;;;;17.20;16.00;;;;;23.06;46.68;99753.50;4856637;29;8868;-80
2022/10/24 01:08:31;;;;;;;;;17.80;15.60;;;;;23.15;46.38;99747.75;4857283;29;8857;-80
2022/10/24 01:11:09;;;;;;;;;14.60;14.60;;;;;23.11;46.44;99748.81;4899255;29;8923;-80
2022/10/24 01:14:10;;;;;;;;;15.40;15.20;;;;;23.22;46.44;99748.31;4872277;29;9579;-81
2022/10/24 01:16:48;;;;;;;;;16.60;14.60;;;;;23.32;46.43;99741.56;4884329;29;9029;-80
2022/10/24 01:19:52;;;;;;;;;16.40;16.00;;;;;23.38;46.15;99743.06;4939694;28;8840;-79
2022/10/24 01:22:32;;;;;;;;;17.00;14.20;;;;;23.33;46.16;99745.97;4957721;28;8876;-77
2022/10/24 01:25:26;;;;;;;;;16.20;14.80;;;;;23.32;46.13;99757.53;4950615;28;8900;-79
2022/10/24 01:28:04;;;;;;;;;14.20;14.20;;;;;23.15;46.30;99753.06;4914340;28;8969;-80
2022/10/24 01:30:43;;;;;;;;;14.20;14.20;;;;;23.15;46.39;99755.72;4914072;28;8944;-78
2022/10/24 01:33:21;;;;;;;;;15.60;13.80;;;;;23.06;46.56;99753.50;4945493;28;8859;-79
2022/10/24 01:35:55;;;;;;;;;18.00;15.00;;;;;23.01;46.69;99755.53;4947426;28;8878;-79
2022/10/24 01:38:31;;;;;;;;;14.20;13.60;;;;;23.07;46.54;99764.06;4972304;28;8982;-78
2022/10/24 01:41:07;;;;;;;;;16.80;15.20;;;;;23.01;46.80;99766.16;4987065;28;8879;-79
2022/10/24 01:43:43;;;;;;;;;18.00;17.20;;;;;22.94;47.02;99762.91;4951016;28;8984;-80
2022/10/24 01:46:29;;;;;;;;;17.20;16.80;;;;;22.78;47.33;99757.47;4935870;28;8885;-80
2022/10/24 01:49:05;;;;;;;;;18.80;17.00;;;;;22.76;47.55;99759.34;4951511;28;8890;-79
2022/10/24 01:51:36;;;;;;;;;17.80;16.60;;;;;22.75;47.42;99762.94;4935998;28;8873;-79
2022/10/24 01:54:33;;;;;;;;;20.20;16.60;;;;;22.77;47.19;99759.25;4955468;28;8905;-79
2022/10/24 01:57:27;;;;;;;;;16.00;14.20;;;;;22.81;47.49;99749.34;4884788;28;8850;-83
2022/10/24 01:59:57;;;;;;;;;17.20;16.40;;;;;22.78;47.42;99754.81;4872206;28;8874;-79
2022/10/24 02:02:33;;;;;;;;;17.40;16.60;;;;;22.73;47.61;99755.03;4857178;28;8882;-80
2022/10/24 02:05:11;;;;;;;;;18.80;15.40;;;;;22.69;47.67;99750.78;4857251;28;8862;-81
2022/10/24 02:07:46;;;;;;;;;16.20;13.60;;;;;22.68;47.61;99750.84;4856846;28;8878;-80
2022/10/24 02:10:20;;;;;;;;;14.80;14.60;;;;;22.69;47.32;99752.59;4859939;28;8874;-81
2022/10/24 02:12:54;;;;;;;;;17.60;17.00;;;;;22.69;47.25;99739.31;4875014;28;8868;-79
2022/10/24 02:15:29;;;;;;;;;17.60;16.40;;;;;22.52;47.64;99742.75;4896883;28;8874;-80
2022/10/24 02:18:02;;;;;;;;;18.40;15.00;;;;;22.51;47.93;99739.25;4912676;29;8971;-79
2022/10/24 02:20:40;;;;;;;;;14.00;13.80;;;;;22.50;47.95;99736.66;4928681;29;8963;-79
2022/10/24 02:23:37;;;;;;;;;15.60;13.00;;;;;22.51;47.93;99735.69;4952180;28;8962;-78
2022/10/24 02:26:14;;;;;;;;;12.00;12.00;;;;;22.52;47.71;99735.63;4952731;28;9059;-81
2022/10/24 02:28:47;;;;;;;;;13.20;13.20;;;;;22.42;47.60;99733.47;4950388;28;8932;-81
2022/10/24 02:31:25;;;;;;;;;14.40;12.60;;;;;22.24;47.82;99733.34;4967782;28;8878;-77
2022/10/24 02:33:58;;;;;;;;;13.60;11.20;;;;;22.20;47.71;99722.00;4874172;29;8963;-79
2022/10/24 02:36:35;;;;;;;;;12.20;12.20;;;;;22.14;48.00;99726.75;4859900;29;8967;-78
2022/10/24 02:39:09;;;;;;;;;13.80;13.00;;;;;22.07;48.20;99726.16;4856387;29;8947;-79
2022/10/24 02:41:44;;;;;;;;;14.40;13.20;;;;;22.02;48.38;99720.19;4853673;29;8907;-79
2022/10/24 02:44:18;;;;;;;;;15.00;14.40;;;;;22.01;48.18;99723.78;4867990;29;8879;-80
2022/10/24 02:46:51;;;;;;;;;11.40;10.20;;;;;22.08;48.11;99717.25;4875734;29;8879;-79
2022/10/24 02:49:21;;;;;;;;;14.60;13.20;;;;;22.00;48.02;99730.91;4844278;29;9613;-82
2022/10/24 02:51:53;;;;;;;;;10.20;10.20;;;;;22.05;47.83;99719.19;4856821;29;8866;-80
2022/10/24 02:54:22;;;;;;;;;14.40;12.40;;;;;22.08;47.66;99721.69;4875986;29;8921;-81
2022/10/24 02:56:54;;;;;;;;;14.00;13.60;;;;;22.03;47.80;99729.88;4906225;28;8972;-80
2022/10/24 02:59:26;;;;;;;;;13.40;12.20;;;;;22.08;47.65;99725.25;4908781;28;9622;-81
2022/10/24 03:02:16;;;;;;;;;14.00;13.40;;;;;22.08;47.58;99719.91;5009737;28;8843;-78
2022/10/24 03:05:10;;;;;;;;;12.80;11.40;;;;;22.07;47.51;99725.31;5010636;28;8846;-79
2022/10/24 03:07:40;;;;;;;;;13.60;12.80;;;;;22.27;47.21;99725.28;4994000;28;8900;-80
2022/10/24 03:10:14;;;;;;;;;14.20;13.00;;;;;22.20;47.24;99729.13;5023932;28;8834;-80
2022/10/24 03:12:46;;;;;;;;;14.40;11.60;;;;;22.29;47.07;99731.41;5010600;28;8857;-79
2022/10/24 03:15:22;;;;;;;;;12.00;11.40;;;;;22.38;47.10;99732.75;4994062;28;8869;-79
2022/10/24 03:17:56;;;;;;;;;14.20;13.00;;;;;22.37;47.10;99726.56;4974553;28;8860;-79
2022/10/24 03:20:34;;;;;;;;;14.00;13.80;;;;;22.43;46.84;99732.56;4959514;28;8916;-78
2022/10/24 03:23:11;;;;;;;;;14.80;14.20;;;;;22.38;47.40;99727.44;4987919;28;8865;-77
2022/10/24 03:25:43;;;;;;;;;17.20;15.80;;;;;22.48;46.83;99725.22;4987931;28;9778;-80
2022/10/24 03:28:13;;;;;;;;;14.40;13.40;;;;;22.59;46.60;99712.31;4969006;28;8841;-80
2022/10/24 03:30:43;;;;;;;;;18.60;18.60;;;;;22.70;46.62;99704.69;4987887;28;8849;-78
2022/10/24 03:33:13;;;;;;;;;14.00;13.20;;;;;22.74;46.53;99706.25;4900477;29;8868;-80
2022/10/24 03:35:45;;;;;;;;;15.00;14.60;;;;;22.78;46.33;99712.28;4827590;29;8857;-78
2022/10/24 03:38:17;;;;;;;;;14.80;13.20;;;;;22.78;46.32;99712.28;4819042;29;8957;-79
2022/10/24 03:40:47;;;;;;;;;15.80;15.20;;;;;22.64;46.48;99707.59;4830858;29;9010;-80
2022/10/24 03:43:17;;;;;;;;;14.20;14.20;;;;;22.64;46.51;99706.75;4872155;29;8861;-81
2022/10/24 03:45:46;;;;;;;;;14.80;14.80;;;;;22.65;46.57;99705.84;4855993;29;8880;-78
2022/10/24 03:48:17;;;;;;;;;17.40;14.00;;;;;22.68;46.69;99713.63;4910247;29;8871;-80
2022/10/24 03:50:47;;;;;;;;;17.60;17.40;;;;;22.56;46.96;99718.59;4858739;29;8895;-78
2022/10/24 03:53:17;;;;;;;;;15.40;15.20;;;;;22.46;47.38;99717.31;4861827;29;8896;-81
2022/10/24 03:55:46;;;;;;;;;18.00;16.80;;;;;22.38;47.35;99709.72;4902258;29;8916;-81
2022/10/24 03:58:15;;;;;;;;;9.60;9.60;;;;;22.32;47.14;99712.63;4930549;28;8857;-82
2022/10/24 04:00:44;;;;;;;;;16.60;16.20;;;;;22.30;47.21;99718.97;4952130;28;8850;-80
2022/10/24 04:03:13;;;;;;;;;23.20;19.20;;;;;22.27;47.50;99709.34;4952369;28;8834;-79
2022/10/24 04:05:42;;;;;;;;;15.40;14.40;;;;;22.16;47.72;99715.13;4952692;28;8866;-80
2022/10/24 04:08:16;;;;;;;;;17.40;15.20;;;;;22.05;47.75;99714.75;5045524;28;8913;-79
2022/10/24 04:10:49;;;;;;;;;16.40;16.40;;;;;22.05;47.80;99709.44;4966647;28;8860;-80
2022/10/24 04:13:23;;;;;;;;;18.20;14.80;;;;;22.08;47.75;99711.97;4974885;28;8852;-80
2022/10/24 04:15:52;;;;;;;;;14.80;13.60;;;;;22.14;47.74;99710.81;4976544;28;8877;-80
2022/10/24 04:18:22;;;;;;;;;20.00;17.60;;;;;22.16;47.58;99709.81;5004932;28;8862;-80
2022/10/24 04:20:52;;;;;;;;;24.00;20.80;;;;;22.20;47.32;99708.72;4978730;28;8884;-79
2022/10/24 04:23:27;;;;;;;;;19.80;17.80;;;;;22.17;47.50;99705.34;4941972;28;8849;-81
2022/10/24 04:25:57;;;;;;;;;24.40;20.40;;;;;22.17;47.35;99692.94;4926888;28;8930;-80
2022/10/24 04:28:31;;;;;;;;;18.60;16.20;;;;;22.04;47.84;99698.88;4912795;28;8919;-80
2022/10/24 04:31:02;;;;;;;;;21.20;20.20;;;;;21.85;48.60;99706.81;5026466;28;8894;-79
2022/10/24 04:34:34;;;;;;;;;14.80;14.80;;;;;21.98;48.21;99706.19;4994981;28;8818;-81
2022/10/24 04:37:05;;;;;;;;;23.20;21.00;;;;;21.65;49.01;99708.56;4954228;28;8947;-79
2022/10/24 04:39:43;;;;;;;;;18.60;18.40;;;;;21.72;49.02;99707.34;4953177;28;8884;-77
2022/10/24 04:42:18;;;;;;;;;21.40;19.20;;;;;21.41;49.76;99708.63;4836205;29;8987;-79
2022/10/24 04:44:51;;;;;;;;;21.60;18.40;;;;;21.54;49.47;99703.69;4835676;29;8899;-79
2022/10/24 04:47:24;;;;;;;;;19.80;19.80;;;;;21.35;49.88;99689.47;4855751;29;8883;-78
2022/10/24 04:49:56;;;;;;;;;20.00;20.00;;;;;21.38;49.84;99690.22;4806147;29;8914;-78
2022/10/24 04:52:26;;;;;;;;;25.75;22.50;;;;;21.30;50.17;99683.50;4805010;29;8880;-79
2022/10/24 04:54:59;;;;;;;;;24.40;21.00;;;;;21.33;49.94;99686.03;4799023;29;8910;-78
2022/10/24 04:57:32;;;;;;;;;23.20;21.20;;;;;21.25;50.06;99689.00;4785800;29;9061;-79
2022/10/24 05:00:02;;;;;;;;;22.80;21.20;;;;;21.11;50.53;99684.25;4818904;29;9023;-80
2022/10/24 05:02:32;;;;;;;;;20.00;19.60;;;;;20.88;51.27;99681.72;4841157;29;8926;-81
2022/10/24 05:05:02;;;;;;;;;22.60;17.60;;;;;21.01;50.83;99685.59;4864872;28;8846;-82
2022/10/24 05:07:32;;;;;;;;;15.60;15.60;;;;;20.82;51.28;99696.94;4941624;28;8856;-79
2022/10/24 05:10:04;;;;;;;;;13.00;12.00;;;;;20.87;51.46;99686.16;4991489;28;8880;-79
2022/10/24 05:12:33;;;;;;;;;26.25;23.25;;;;;20.80;51.59;99680.22;4904656;28;8874;-82
2022/10/24 05:15:03;;;;;;;;;21.00;20.40;;;;;20.66;52.11;99690.50;4896229;28;8966;-79
2022/10/24 05:17:35;;;;;;;;;20.20;20.20;;;;;20.61;52.14;99684.56;4910958;28;8860;-78
2022/10/24 05:20:28;;;;;;;;;25.20;23.40;;;;;20.89;51.32;99697.56;4937848;28;8862;-82
2022/10/24 05:23:01;;;;;;;;;27.00;25.00;;;;;20.86;51.54;99692.38;4936830;28;8854;-79
2022/10/24 05:25:34;;;;;;;;;23.20;21.40;;;;;21.07;51.00;99689.75;4924971;28;8978;-82
2022/10/24 05:28:03;;;;;;;;;27.00;25.25;;;;;20.97;51.13;99702.53;4971323;28;9914;-81
2022/10/24 05:31:07;;;;;;;;;25.80;21.80;;;;;21.07;50.88;99693.28;4954994;28;8976;-81
2022/10/24 05:34:49;;;;;;;;;23.40;22.40;;;;;21.23;50.25;99699.66;4932551;29;8870;-83
2022/10/24 05:37:19;;;;;;;;;20.00;20.00;;;;;21.18;50.26;99699.00;4935531;29;8873;-81
2022/10/24 05:39:48;;;;;;;;;21.20;19.80;;;;;21.05;50.71;99703.09;4917293;29;8918;-82
2022/10/24 05:42:19;;;;;;;;;25.80;24.80;;;;;21.09;50.72;99704.69;4931860;29;9702;-87
2022/10/24 05:44:48;;;;;;;;;21.80;21.80;;;;;20.87;51.28;99704.72;4916089;29;8889;-84
2022/10/24 05:47:17;;;;;;;;;25.00;23.00;;;;;20.84;51.39;99705.69;4931624;29;8884;-86
2022/10/24 05:49:52;;;;;;;;;31.00;28.50;;;;;20.77;51.87;99716.59;4917333;29;8952;-85
2022/10/24 05:52:21;;;;;;;;;19.80;19.80;;;;;20.75;51.91;99715.78;4886467;29;8889;-85
2022/10/24 05:54:50;;;;;;;;;27.20;26.20;;;;;20.89;51.47;99718.75;4918709;29;8917;-87
2022/10/24 05:57:40;;;;;;;;;25.00;22.80;;;;;20.95;51.25;99720.31;4956344;28;8989;-84
2022/10/24 06:00:20;;;;;;;;;26.40;23.20;;;;;20.87;51.08;99719.72;5010080;28;8878;-88
2022/10/24 06:02:49;;;;;;;;;22.80;22.20;;;;;21.00;50.82;99713.00;4996533;28;8854;-86
2022/10/24 06:05:18;;;;;;;;;24.80;23.40;;;;;21.15;50.24;99712.41;4953846;28;8939;-84
2022/10/24 06:07:49;;;;;;;;;30.25;26.50;;;;;21.18;50.10;99717.56;4995201;28;8856;-87
2022/10/24 06:10:23;;;;;;;;;26.75;25.50;;;;;21.32;50.09;99718.78;4994713;28;8923;-86
2022/10/24 06:12:56;;;;;;;;;24.40;23.60;;;;;21.42;49.46;99723.63;5055464;28;8971;-85
2022/10/24 06:15:26;;;;;;;;;31.00;26.60;;;;;21.61;49.12;99728.19;5068341;28;8853;-88
2022/10/24 06:17:55;;;;;;;;;31.20;27.60;;;;;21.72;48.30;99731.25;5058642;28;8880;-82
2022/10/24 06:20:24;;;;;;;;;29.40;27.00;;;;;21.81;48.08;99732.63;4986142;28;8852;-83
2022/10/24 06:22:53;;;;;;;;;23.20;21.80;;;;;22.07;47.64;99741.22;4986302;28;9011;-84
2022/10/24 06:25:22;;;;;;;;;24.60;22.60;;;;;22.27;47.04;99738.56;4990670;28;8884;-82
2022/10/24 06:27:52;;;;;;;;;21.60;20.00;;;;;22.53;46.56;99736.50;4955582;28;8876;-84
2022/10/24 06:30:24;;;;;;;;;26.25;24.00;;;;;22.68;46.63;99727.78;4973005;28;8876;-86
2022/10/24 06:32:53;;;;;;;;;20.20;19.20;;;;;22.83;46.30;99736.81;4991962;28;8842;-82
2022/10/24 06:35:22;;;;;;;;;26.40;23.80;;;;;22.97;45.85;99739.69;5003469;28;8979;-82
2022/10/24 06:37:51;;;;;;;;;30.20;27.40;;;;;23.10;45.32;99741.78;5007169;28;8857;-81
2022/10/24 06:40:20;;;;;;;;;23.75;20.50;;;;;23.19;45.53;99745.78;4962453;28;8923;-84
2022/10/24 06:42:49;;;;;;;;;28.00;25.25;;;;;23.19;45.30;99746.66;4956336;28;8913;-85
2022/10/24 06:45:21;;;;;;;;;24.25;23.00;;;;;23.45;44.79;99748.00;5042250;28;8862;-81
2022/10/24 06:47:52;;;;;;;;;26.00;24.40;;;;;23.64;44.45;99744.41;4956229;28;8852;-84
2022/10/24 06:50:22;;;;;;;;;25.00;21.20;;;;;23.77;44.19;99744.66;4940167;28;8990;-85
2022/10/24 06:52:51;;;;;;;;;28.00;23.00;;;;;23.91;43.69;99753.69;4957157;28;8862;-83
2022/10/24 06:55:20;;;;;;;;;24.60;22.00;;;;;23.97;43.52;99747.16;4956831;28;8854;-84
2022/10/24 06:57:49;;;;;;;;;19.60;18.40;;;;;24.11;43.38;99749.09;4956008;28;8851;-82
2022/10/24 07:00:18;;;;;;;;;21.80;20.40;;;;;24.24;43.12;99752.81;4963582;28;8851;-83
2022/10/24 07:02:48;;;;;;;;;29.00;23.25;;;;;24.31;43.09;99751.53;4976858;28;8876;-83
2022/10/24 07:05:20;;;;;;;;;24.00;23.20;;;;;24.32;43.04;99757.72;4957046;28;8957;-73
2022/10/24 07:07:49;;;;;;;;;22.60;19.60;;;;;24.41;42.79;99756.38;4965898;28;8884;-71
2022/10/24 07:10:18;;;;;;;;;18.60;17.20;;;;;24.41;42.53;99767.03;4972218;28;9584;-74
2022/10/24 07:12:46;;;;;;;;;18.40;18.40;;;;;24.52;42.43;99764.69;4985306;28;8873;-75
2022/10/24 07:15:15;;;;;;;;;20.60;19.20;;;;;24.62;42.39;99765.03;4949311;28;8865;-71
2022/10/24 07:17:45;;;;;;;;;24.80;23.80;;;;;24.76;41.76;99759.78;4965939;28;8856;-71
2022/10/24 07:20:14;;;;;;;;;26.60;24.40;;;;;24.83;41.84;99758.50;4966420;28;8869;-74
2022/10/24 07:22:44;;;;;;;;;17.60;17.40;;;;;24.91;41.91;99763.41;4984611;28;8935;-73
2022/10/24 07:25:13;;;;;;;;;20.00;19.40;;;;;24.98;42.07;99759.44;4985637;28;8915;-73
2022/10/24 07:27:44;;;;;;;;;24.20;23.20;;;;;25.05;41.87;99762.63;4972130;28;8853;-74
2022/10/24 07:30:17;;;;;;;;;26.50;26.50;;;;;25.17;41.55;99764.59;4969364;28;8886;-71
2022/10/24 07:32:46;;;;;;;;;25.00;22.75;;;;;25.27;41.87;99757.81;4983539;28;9794;-75
2022/10/24 07:35:15;;;;;;;;;30.75;27.25;;;;;25.42;41.52;99756.03;4969340;28;9572;-71
2022/10/24 07:37:45;;;;;;;;;32.25;29.50;;;;;25.49;41.31;99754.72;5036102;28;8825;-75
2022/10/24 07:40:14;;;;;;;;;27.50;25.25;;;;;25.54;41.25;99757.16;4984695;28;8858;-73
2022/10/24 07:42:42;;;;;;;;;23.00;22.20;;;;;25.63;41.34;99753.94;4985257;28;8885;-74
2022/10/24 07:45:12;;;;;;;;;25.80;23.40;;;;;25.63;41.00;99756.59;4983389;28;8862;-75
2022/10/24 07:47:40;;;;;;;;;27.75;25.75;;;;;25.66;40.84;99755.53;4951610;28;8854;-70
2022/10/24 07:50:09;;;;;;;;;26.00;22.75;;;;;25.62;40.97;99752.19;4976165;28;8861;-73
2022/10/24 07:52:38;;;;;;;;;22.40;21.60;;;;;25.71;40.74;99757.94;4973840;28;8876;-71
2022/10/24 07:55:09;;;;;;;;;26.75;23.25;;;;;25.75;40.67;99752.31;5056230;28;8859;-72
2022/10/24 07:57:38;;;;;;;;;32.25;25.50;;;;;25.85;40.56;99761.50;4948885;28;8873;-75
2022/10/24 08:00:08;;;;;;;;;29.60;25.20;;;;;25.77;40.88;99753.09;4985043;28;8880;-74
2022/10/24 08:02:42;;;;;;;;;27.60;26.40;;;;;25.76;40.77;99759.38;4952430;28;8870;-73
2022/10/24 08:05:11;;;;;;;;;22.00;21.00;;;;;25.80;40.57;99749.38;4971441;28;8892;-74
2022/10/24 08:07:40;;;;;;;;;23.60;21.80;;;;;25.77;40.38;99750.41;5037577;28;8965;-74
2022/10/24 08:10:13;;;;;;;;;25.00;23.50;;;;;25.81;40.59;99745.75;4952825;28;8861;-72
2022/10/24 08:12:41;;;;;;;;;22.60;20.80;;;;;25.82;40.42;99743.00;4972947;28;9592;-71
2022/10/24 08:15:11;;;;;;;;;23.60;22.40;;;;;25.99;40.16;99743.78;4990309;28;8897;-73
2022/10/24 08:17:39;;;;;;;;;21.60;19.80;;;;;26.22;39.90;99745.06;4988576;28;8850;-73
2022/10/24 08:20:09;;;;;;;;;19.40;17.80;;;;;26.28;39.31;99741.16;4984063;28;8984;-73
2022/10/24 08:22:38;;;;;;;;;21.80;20.80;;;;;26.48;39.45;99738.06;5056620;28;8975;-74
2022/10/24 08:25:08;;;;;;;;;19.60;18.80;;;;;26.47;38.68;99746.19;4983111;28;8862;-73
2022/10/24 08:27:38;;;;;;;;;23.80;19.60;;;;;26.53;38.87;99752.00;4988596;28;8873;-73
2022/10/24 08:30:08;;;;;;;;;21.80;19.80;;;;;26.63;38.64;99749.63;4988267;28;8901;-74
2022/10/24 08:32:38;;;;;;;;;31.25;28.50;;;;;26.70;38.73;99748.28;4988632;28;8894;-72
2022/10/24 08:35:07;;;;;;;;;24.50;22.75;;;;;26.42;38.81;99759.84;4992507;28;9666;-72
2022/10/24 08:37:37;;;;;;;;;16.00;15.20;;;;;26.61;38.76;99752.41;4989015;28;8870;-74
2022/10/24 08:40:11;;;;;;;;;19.60;18.60;;;;;26.59;38.73;99758.78;4989224;28;8870;-76
2022/10/24 08:42:42;;;;;;;;;17.60;16.60;;;;;26.84;38.42;99763.44;4988538;28;8861;-71
2022/10/24 08:45:17;;;;;;;;;19.20;17.60;;;;;27.08;38.42;99757.47;4987407;28;8861;-72
2022/10/24 08:47:52;;;;;;;;;15.20;15.20;;;;;27.25;38.49;99751.88;4988548;28;8858;-74
2022/10/24 08:50:24;;;;;;;;;21.40;19.20;;;;;27.42;38.36;99748.06;4987712;28;8873;-75
2022/10/24 08:53:01;;;;;;;;;21.20;21.20;;;;;27.51;37.94;99749.28;5067771;28;8855;-73
2022/10/24 08:55:37;;;;;;;;;23.20;22.60;;;;;27.50;37.57;99752.91;5050708;28;8877;-71
2022/10/24 08:58:23;;;;;;;;;27.50;25.50;;;;;27.44;37.44;99745.28;5039215;28;8982;-74
2022/10/24 09:00:55;;;;;;;;;21.60;19.60;;;;;27.42;37.73;99748.06;4999822;28;8872;-74
2022/10/24 09:03:32;;;;;;;;;17.80;17.80;;;;;27.56;37.53;99752.47;5067718;28;8832;-76
2022/10/24 09:06:22;;;;;;;;;22.60;18.80;;;;;27.68;37.10;99748.13;5067433;28;10049;-74
2022/10/24 09:08:54;;;;;;;;;20.20;18.80;;;;;27.75;37.06;99741.34;5050386;28;8856;-73
2022/10/24 09:11:30;;;;;;;;;23.00;20.00;;;;;27.77;36.66;99747.50;5067566;28;8860;-71
2022/10/24 09:14:05;;;;;;;;;22.20;19.00;;;;;27.90;37.05;99745.72;5067519;28;8852;-71
2022/10/24 09:16:35;;;;;;;;;22.00;21.75;;;;;27.96;36.78;99745.28;5067401;28;9625;-73
2022/10/24 09:19:04;;;;;;;;;19.40;18.00;;;;;27.87;37.02;99743.22;5010064;28;8850;-73
2022/10/24 09:21:33;;;;;;;;;19.00;19.00;;;;;27.99;36.62;99746.88;5010540;28;8884;-75
2022/10/24 09:24:02;;;;;;;;;23.75;23.00;;;;;27.94;36.55;99752.56;4984657;28;8888;-75
2022/10/24 09:26:33;;;;;;;;;15.00;14.00;;;;;27.84;36.68;99755.97;4947628;28;9689;-74
2022/10/24 09:29:04;;;;;;;;;18.00;15.60;;;;;28.04;36.48;99752.78;4944506;28;9014;-74
2022/10/24 09:31:32;;;;;;;;;24.40;22.40;;;;;27.73;36.69;99752.22;4946158;28;8898;-72
2022/10/24 09:34:02;;;;;;;;;18.60;18.00;;;;;27.46;37.20;99754.06;4945541;28;8861;-75
2022/10/24 09:36:31;;;;;;;;;18.80;18.80;;;;;27.52;36.94;99754.50;4945826;28;8880;-74
2022/10/24 09:39:24;;;;;;;;;20.00;18.80;;;;;27.27;37.14;99751.78;4995285;28;9528;-73
2022/10/24 09:41:53;;;;;;;;;17.20;15.60;;;;;27.45;37.30;99747.00;4930002;28;9001;-75
2022/10/24 09:44:36;;;;;;;;;14.20;14.20;;;;;27.74;37.08;99745.03;4929720;28;8995;-71
2022/10/24 09:47:20;;;;;;;;;17.40;14.20;;;;;27.97;36.04;99746.13;4939726;28;8888;-69
2022/10/24 09:49:49;;;;;;;;;17.20;15.00;;;;;28.16;35.11;99749.22;4953566;28;8914;-74
2022/10/24 09:52:22;;;;;;;;;19.80;18.00;;;;;28.36;35.16;99745.16;4973666;28;8856;-72
2022/10/24 09:55:15;;;;;;;;;19.60;15.00;;;;;28.60;35.37;99744.38;4995009;28;8875;-72
2022/10/24 09:57:44;;;;;;;;;17.20;15.40;;;;;28.62;35.09;99739.78;4971965;28;8985;-73
2022/10/24 10:00:27;;;;;;;;;16.40;14.80;;;;;28.88;35.04;99735.16;4985812;28;8870;-74
2022/10/24 10:03:01;;;;;;;;;22.20;20.60;;;;;29.01;34.92;99745.84;5002022;28;9092;-73
2022/10/24 10:05:44;;;;;;;;;19.20;17.80;;;;;29.21;34.69;99736.34;4968551;28;8965;-71
2022/10/24 10:08:19;;;;;;;;;22.20;21.00;;;;;29.29;34.95;99743.81;4986967;28;8864;-75
2022/10/24 10:11:00;;;;;;;;;19.60;16.80;;;;;29.48;33.81;99730.69;5047945;28;8979;-73
2022/10/24 10:13:30;;;;;;;;;14.20;14.20;;;;;29.40;33.29;99727.75;4984405;28;8873;-72
2022/10/24 10:16:02;;;;;;;;;17.60;17.60;;;;;29.48;33.54;99730.69;4974328;28;8885;-75
2022/10/24 10:18:34;;;;;;;;;17.80;16.60;;;;;29.50;33.07;99730.59;4987296;28;8866;-75
2022/10/24 10:21:08;;;;;;;;;20.60;20.40;;;;;29.58;33.00;99736.22;4970712;28;8880;-74
2022/10/24 10:23:39;;;;;;;;;14.80;14.80;;;;;29.62;32.23;99731.47;4974715;28;8870;-74
2022/10/24 10:26:20;;;;;;;;;19.00;16.00;;;;;29.60;31.76;99734.25;4975876;28;8939;-73
2022/10/24 10:28:56;;;;;;;;;15.00;14.00;;;;;29.51;32.66;99730.47;4987976;28;8858;-75
2022/10/24 10:31:34;;;;;;;;;17.20;16.80;;;;;28.78;33.05;99726.91;4974282;28;8961;-73
2022/10/24 10:34:14;;;;;;;;;14.40;14.20;;;;;28.77;32.27;99733.28;4969777;28;8885;-72
2022/10/24 10:37:04;;;;;;;;;15.20;14.20;;;;;29.22;32.71;99723.75;4971549;28;8948;-75
2022/10/24 10:39:53;;;;;;;;;15.60;12.60;;;;;29.52;33.10;99723.25;4971431;28;8872;-74
2022/10/24 10:42:34;;;;;;;;;16.60;16.60;;;;;29.67;32.76;99723.91;5049378;28;8870;-73
2022/10/24 10:45:18;;;;;;;;;18.40;16.80;;;;;29.93;32.39;99722.75;4982096;28;8938;-76
2022/10/24 10:48:01;;;;;;;;;18.00;17.00;;;;;30.06;32.18;99727.19;4981586;28;8917;-73
2022/10/24 10:50:38;;;;;;;;;21.00;18.80;;;;;30.14;32.23;99722.06;5049578;28;8964;-75
2022/10/24 10:53:26;;;;;;;;;19.40;17.00;;;;;30.19;31.77;99727.94;5000712;28;8912;-73
2022/10/24 10:56:06;;;;;;;;;21.60;18.00;;;;;30.29;31.41;99715.44;4976880;28;8868;-75
2022/10/24 10:58:46;;;;;;;;;19.60;17.20;;;;;30.38;30.37;99711.19;5017694;28;8874;-77
2022/10/24 11:01:27;;;;;;;;;20.60;17.00;;;;;30.44;30.88;99712.53;4984102;28;8874;-76
2022/10/24 11:04:07;;;;;;;;;17.60;16.20;;;;;30.64;30.86;99714.47;4976011;28;8854;-73
2022/10/24 11:06:44;;;;;;;;;19.20;17.40;;;;;30.74;30.22;99714.56;4976632;28;8881;-75
2022/10/24 11:09:22;;;;;;;;;20.80;18.80;;;;;30.85;30.32;99702.88;4965682;28;8886;-74
2022/10/24 11:11:57;;;;;;;;;22.00;20.60;;;;;30.98;30.67;99700.06;4985572;28;9017;-75
2022/10/24 11:14:31;;;;;;;;;19.25;18.00;;;;;31.12;30.79;99698.94;4986207;28;8861;-76
2022/10/24 11:17:06;;;;;;;;;23.00;22.25;;;;;31.27;30.54;99689.56;5067602;28;9617;-75
2022/10/24 11:19:50;;;;;;;;;14.50;13.75;;;;;31.38;29.89;99694.88;4970258;28;8880;-73
2022/10/24 11:22:25;;;;;;;;;20.00;19.50;;;;;31.47;29.18;99695.97;4949670;28;8872;-75
2022/10/24 11:25:01;;;;;;;;;24.20;20.60;;;;;31.56;29.40;99680.84;4964947;28;8875;-75
2022/10/24 11:27:38;;;;;;;;;21.60;19.60;;;;;31.77;28.40;99678.13;4967490;28;8966;-75
2022/10/24 11:30:15;;;;;;;;;18.80;16.40;;;;;32.02;28.38;99682.25;4933134;28;8857;-76
2022/10/24 11:32:50;;;;;;;;;19.20;17.60;;;;;32.09;28.17;99678.03;4976474;28;8850;-73
2022/10/24 11:35:28;;;;;;;;;21.60;17.60;;;;;32.12;27.69;99672.38;4967892;28;8860;-74
2022/10/24 11:38:01;;;;;;;;;18.60;17.80;;;;;32.16;27.81;99673.78;4968000;28;8864;-72
2022/10/24 11:40:30;;;;;;;;;19.20;17.20;;;;;32.17;27.58;99674.63;4976575;28;10206;-72
2022/10/24 11:43:11;;;;;;;;;24.80;20.60;;;;;32.12;27.69;99664.25;4960535;28;8878;-75
2022/10/24 11:45:48;;;;;;;;;18.60;15.80;;;;;32.12;27.97;99668.78;4924909;28;8860;-74
2022/10/24 11:48:21;;;;;;;;;16.00;16.00;;;;;32.12;27.90;99666.09;5043629;28;8870;-76
2022/10/24 11:50:54;;;;;;;;;17.80;14.80;;;;;32.03;27.91;99659.69;5058851;28;8889;-74
2022/10/24 11:53:44;;;;;;;;;16.20;16.20;;;;;32.14;28.00;99659.59;5087291;28;8878;-72
2022/10/24 11:56:19;;;;;;;;;15.80;15.40;;;;;32.04;28.12;99654.16;5070920;28;8977;-75
2022/10/24 11:58:58;;;;;;;;;17.20;17.20;;;;;32.03;28.01;99652.44;5089601;28;8889;-75